sensor_id;sensor_type;location;lat;lon;timestamp;temperature;humidity
59208;DHT22;44977;53.132;6.408;2022-09-03T00:03:02;17.30;80.00
59208;DHT22;44977;53.132;6.408;2022-09-03T00:13:33;17.10;81.10
59208;DHT22;44977;53.132;6.408;2022-09-03T00:18:42;17.00;82.30
59208;DHT22;44977;53.132;6.408;2022-09-03T00:23:44;16.90;83.10
59208;DHT22;44977;53.132;6.408;2022-09-03T00:28:55;16.90;84.40
59208;DHT22;44977;53.132;6.408;2022-09-03T00:34:03;16.80;84.30
59208;DHT22;44977;53.132;6.408;2022-09-03T00:39:05;16.70;84.90
59208;DHT22;44977;53.132;6.408;2022-09-03T00:54:24;16.50;89.20
59208;DHT22;44977;53.132;6.408;2022-09-03T01:05:09;16.40;90.10
59208;DHT22;44977;53.132;6.408;2022-09-03T01:21:20;16.20;91.80
59208;DHT22;44977;53.132;6.408;2022-09-03T01:26:55;16.20;92.10
59208;DHT22;44977;53.132;6.408;2022-09-03T01:32:20;16.00;92.10
59208;DHT22;44977;53.132;6.408;2022-09-03T01:43:05;16.00;93.30
59208;DHT22;44977;53.132;6.408;2022-09-03T01:58:45;15.80;94.50
59208;DHT22;44977;53.132;6.408;2022-09-03T02:03:48;15.70;94.90
59208;DHT22;44977;53.132;6.408;2022-09-03T02:08:50;15.70;95.20
59208;DHT22;44977;53.132;6.408;2022-09-03T02:13:53;15.60;95.60
59208;DHT22;44977;53.132;6.408;2022-09-03T02:19:02;15.60;95.80
59208;DHT22;44977;53.132;6.408;2022-09-03T02:24:05;15.50;96.20
59208;DHT22;44977;53.132;6.408;2022-09-03T02:29:07;15.50;96.40
59208;DHT22;44977;53.132;6.408;2022-09-03T02:34:07;15.50;97.00
59208;DHT22;44977;53.132;6.408;2022-09-03T02:39:08;15.40;97.10
59208;DHT22;44977;53.132;6.408;2022-09-03T02:49:10;15.30;97.90
59208;DHT22;44977;53.132;6.408;2022-09-03T02:54:11;15.40;98.40
59208;DHT22;44977;53.132;6.408;2022-09-03T02:59:13;15.30;98.60
59208;DHT22;44977;53.132;6.408;2022-09-03T03:04:14;15.30;99.00
59208;DHT22;44977;53.132;6.408;2022-09-03T03:09:15;15.20;99.00
59208;DHT22;44977;53.132;6.408;2022-09-03T03:14:17;15.20;99.30
59208;DHT22;44977;53.132;6.408;2022-09-03T03:19:18;15.20;99.40
59208;DHT22;44977;53.132;6.408;2022-09-03T03:24:18;15.20;99.70
59208;DHT22;44977;53.132;6.408;2022-09-03T03:29:19;15.20;99.90
59208;DHT22;44977;53.132;6.408;2022-09-03T03:34:21;15.20;99.90
59208;DHT22;44977;53.132;6.408;2022-09-03T03:39:21;15.20;99.90
59208;DHT22;44977;53.132;6.408;2022-09-03T03:44:22;15.20;99.90
59208;DHT22;44977;53.132;6.408;2022-09-03T03:49:23;15.20;99.90
59208;DHT22;44977;53.132;6.408;2022-09-03T03:54:24;15.30;99.90
59208;DHT22;44977;53.132;6.408;2022-09-03T03:59:24;15.30;99.90
59208;DHT22;44977;53.132;6.408;2022-09-03T04:04:25;15.30;99.90
59208;DHT22;44977;53.132;6.408;2022-09-03T04:09:25;15.30;99.90
59208;DHT22;44977;53.132;6.408;2022-09-03T04:14:26;15.30;99.90
59208;DHT22;44977;53.132;6.408;2022-09-03T04:19:27;15.40;99.90
59208;DHT22;44977;53.132;6.408;2022-09-03T04:24:29;15.30;99.90
59208;DHT22;44977;53.132;6.408;2022-09-03T04:29:30;15.40;99.90
59208;DHT22;44977;53.132;6.408;2022-09-03T04:34:30;15.40;99.90
59208;DHT22;44977;53.132;6.408;2022-09-03T04:39:31;15.40;99.90
59208;DHT22;44977;53.132;6.408;2022-09-03T04:44:32;15.40;99.90
59208;DHT22;44977;53.132;6.408;2022-09-03T04:49:36;15.40;99.90
59208;DHT22;44977;53.132;6.408;2022-09-03T04:54:39;15.40;99.90
59208;DHT22;44977;53.132;6.408;2022-09-03T04:59:40;15.40;99.90
59208;DHT22;44977;53.132;6.408;2022-09-03T05:04:42;15.40;99.90
59208;DHT22;44977;53.132;6.408;2022-09-03T05:09:42;15.30;99.90
59208;DHT22;44977;53.132;6.408;2022-09-03T05:14:43;15.30;99.90
59208;DHT22;44977;53.132;6.408;2022-09-03T05:19:44;15.30;99.90
59208;DHT22;44977;53.132;6.408;2022-09-03T05:24:44;15.30;99.90
59208;DHT22;44977;53.132;6.408;2022-09-03T05:29:45;15.20;99.90
59208;DHT22;44977;53.132;6.408;2022-09-03T05:34:46;15.20;99.90
59208;DHT22;44977;53.132;6.408;2022-09-03T05:39:46;15.20;99.90
59208;DHT22;44977;53.132;6.408;2022-09-03T05:44:47;15.20;99.90
59208;DHT22;44977;53.132;6.408;2022-09-03T05:49:48;15.20;99.90
59208;DHT22;44977;53.132;6.408;2022-09-03T05:54:49;15.20;99.90
59208;DHT22;44977;53.132;6.408;2022-09-03T05:59:50;15.30;99.90
59208;DHT22;44977;53.132;6.408;2022-09-03T06:04:50;15.30;99.90
59208;DHT22;44977;53.132;6.408;2022-09-03T06:09:51;15.40;99.90
59208;DHT22;44977;53.132;6.408;2022-09-03T06:14:52;15.40;99.90
59208;DHT22;44977;53.132;6.408;2022-09-03T06:19:52;15.50;99.90
59208;DHT22;44977;53.132;6.408;2022-09-03T06:24:53;15.60;99.90
59208;DHT22;44977;53.132;6.408;2022-09-03T06:29:54;15.70;99.90
59208;DHT22;44977;53.132;6.408;2022-09-03T06:34:55;15.80;99.90
59208;DHT22;44977;53.132;6.408;2022-09-03T06:39:55;16.00;99.90
59208;DHT22;44977;53.132;6.408;2022-09-03T06:44:56;16.10;99.90
59208;DHT22;44977;53.132;6.408;2022-09-03T06:49:57;16.20;99.90
59208;DHT22;44977;53.132;6.408;2022-09-03T06:54:59;16.40;99.90
59208;DHT22;44977;53.132;6.408;2022-09-03T07:00:00;16.50;99.90
59208;DHT22;44977;53.132;6.408;2022-09-03T07:05:03;16.70;99.90
59208;DHT22;44977;53.132;6.408;2022-09-03T07:10:04;16.80;99.90
59208;DHT22;44977;53.132;6.408;2022-09-03T07:15:06;17.00;99.90
59208;DHT22;44977;53.132;6.408;2022-09-03T07:20:07;17.20;99.90
59208;DHT22;44977;53.132;6.408;2022-09-03T07:25:08;17.30;99.60
59208;DHT22;44977;53.132;6.408;2022-09-03T07:30:09;17.40;98.60
59208;DHT22;44977;53.132;6.408;2022-09-03T07:35:10;17.60;98.10
59208;DHT22;44977;53.132;6.408;2022-09-03T07:40:11;17.80;97.70
59208;DHT22;44977;53.132;6.408;2022-09-03T07:45:11;18.00;97.10
59208;DHT22;44977;53.132;6.408;2022-09-03T07:50:12;18.30;94.90
59208;DHT22;44977;53.132;6.408;2022-09-03T07:55:13;18.40;95.80
59208;DHT22;44977;53.132;6.408;2022-09-03T08:00:14;18.70;93.80
59208;DHT22;44977;53.132;6.408;2022-09-03T08:05:17;18.90;93.60
59208;DHT22;44977;53.132;6.408;2022-09-03T08:10:19;19.20;93.80
59208;DHT22;44977;53.132;6.408;2022-09-03T08:15:22;19.40;93.00
59208;DHT22;44977;53.132;6.408;2022-09-03T08:20:22;19.60;90.10
59208;DHT22;44977;53.132;6.408;2022-09-03T08:25:23;19.90;89.90
59208;DHT22;44977;53.132;6.408;2022-09-03T08:30:24;20.00;87.90
59208;DHT22;44977;53.132;6.408;2022-09-03T08:35:26;20.30;87.20
59208;DHT22;44977;53.132;6.408;2022-09-03T08:40:30;20.40;82.60
59208;DHT22;44977;53.132;6.408;2022-09-03T08:45:35;20.50;81.50
59208;DHT22;44977;53.132;6.408;2022-09-03T08:50:42;20.80;81.40
59208;DHT22;44977;53.132;6.408;2022-09-03T08:56:26;20.90;77.70
59208;DHT22;44977;53.132;6.408;2022-09-03T09:01:46;21.10;78.40
59208;DHT22;44977;53.132;6.408;2022-09-03T09:12:15;21.60;76.20
59208;DHT22;44977;53.132;6.408;2022-09-03T09:17:41;21.80;74.40
59208;DHT22;44977;53.132;6.408;2022-09-03T09:22:51;22.10;71.70
59208;DHT22;44977;53.132;6.408;2022-09-03T09:28:03;22.10;69.40
59208;DHT22;44977;53.132;6.408;2022-09-03T09:33:10;22.40;68.10
59208;DHT22;44977;53.132;6.408;2022-09-03T09:38:11;22.50;68.50
59208;DHT22;44977;53.132;6.408;2022-09-03T09:43:14;22.70;66.60
59208;DHT22;44977;53.132;6.408;2022-09-03T09:48:29;22.80;65.70
59208;DHT22;44977;53.132;6.408;2022-09-03T09:53:30;23.00;64.70
59208;DHT22;44977;53.132;6.408;2022-09-03T09:58:33;23.10;64.80
59208;DHT22;44977;53.132;6.408;2022-09-03T10:03:34;23.30;64.80
59208;DHT22;44977;53.132;6.408;2022-09-03T10:08:35;23.50;64.20
59208;DHT22;44977;53.132;6.408;2022-09-03T10:13:43;23.70;62.40
59208;DHT22;44977;53.132;6.408;2022-09-03T10:19:08;23.80;61.30
59208;DHT22;44977;53.132;6.408;2022-09-03T10:29:44;24.00;59.90
59208;DHT22;44977;53.132;6.408;2022-09-03T10:51:04;24.80;54.30
59208;DHT22;44977;53.132;6.408;2022-09-03T10:56:13;25.00;53.20
59208;DHT22;44977;53.132;6.408;2022-09-03T11:06:42;25.30;52.60
59208;DHT22;44977;53.132;6.408;2022-09-03T11:12:19;25.40;51.30
59208;DHT22;44977;53.132;6.408;2022-09-03T11:17:27;25.50;50.60
59208;DHT22;44977;53.132;6.408;2022-09-03T11:22:29;25.80;49.90
59208;DHT22;44977;53.132;6.408;2022-09-03T11:37:53;26.00;48.30
59208;DHT22;44977;53.132;6.408;2022-09-03T11:43:05;26.00;48.40
59208;DHT22;44977;53.132;6.408;2022-09-03T11:48:17;26.00;47.60
59208;DHT22;44977;53.132;6.408;2022-09-03T11:53:40;26.10;47.20
59208;DHT22;44977;53.132;6.408;2022-09-03T11:58:40;26.20;46.10
59208;DHT22;44977;53.132;6.408;2022-09-03T12:03:48;26.10;46.00
59208;DHT22;44977;53.132;6.408;2022-09-03T12:24:34;26.50;44.80
59208;DHT22;44977;53.132;6.408;2022-09-03T12:29:37;26.40;43.20
59208;DHT22;44977;53.132;6.408;2022-09-03T12:34:40;26.50;44.00
59208;DHT22;44977;53.132;6.408;2022-09-03T12:39:49;26.70;44.40
59208;DHT22;44977;53.132;6.408;2022-09-03T12:44:50;26.80;44.50
59208;DHT22;44977;53.132;6.408;2022-09-03T12:49:55;26.80;43.90
59208;DHT22;44977;53.132;6.408;2022-09-03T13:00:31;26.90;44.20
59208;DHT22;44977;53.132;6.408;2022-09-03T13:05:42;27.00;43.80
59208;DHT22;44977;53.132;6.408;2022-09-03T13:10:44;27.00;42.10
59208;DHT22;44977;53.132;6.408;2022-09-03T13:27:03;26.80;42.00
59208;DHT22;44977;53.132;6.408;2022-09-03T13:37:35;26.80;42.20
59208;DHT22;44977;53.132;6.408;2022-09-03T13:42:42;26.70;42.50
59208;DHT22;44977;53.132;6.408;2022-09-03T13:48:33;26.80;42.40
59208;DHT22;44977;53.132;6.408;2022-09-03T13:59:16;26.90;42.20
59208;DHT22;44977;53.132;6.408;2022-09-03T14:04:31;26.90;43.00
59208;DHT22;44977;53.132;6.408;2022-09-03T14:09:39;27.00;43.60
59208;DHT22;44977;53.132;6.408;2022-09-03T14:20:42;26.90;43.40
59208;DHT22;44977;53.132;6.408;2022-09-03T14:25:22;27.10;42.90
59208;DHT22;44977;53.132;6.408;2022-09-03T14:41:06;27.00;42.60
59208;DHT22;44977;53.132;6.408;2022-09-03T14:51:43;27.20;42.70
59208;DHT22;44977;53.132;6.408;2022-09-03T15:07:40;27.20;42.10
59208;DHT22;44977;53.132;6.408;2022-09-03T15:12:54;27.20;42.20
59208;DHT22;44977;53.132;6.408;2022-09-03T15:18:16;27.30;42.40
59208;DHT22;44977;53.132;6.408;2022-09-03T15:23:50;27.20;42.40
59208;DHT22;44977;53.132;6.408;2022-09-03T15:29:18;27.20;43.00
59208;DHT22;44977;53.132;6.408;2022-09-03T15:39:35;27.20;43.10
59208;DHT22;44977;53.132;6.408;2022-09-03T15:44:47;27.20;42.30
59208;DHT22;44977;53.132;6.408;2022-09-03T15:49:59;27.10;43.00
59208;DHT22;44977;53.132;6.408;2022-09-03T16:00:28;26.90;43.50
59208;DHT22;44977;53.132;6.408;2022-09-03T16:05:49;26.90;43.10
59208;DHT22;44977;53.132;6.408;2022-09-03T16:16:21;26.90;44.20
59208;DHT22;44977;53.132;6.408;2022-09-03T16:21:37;26.80;44.80
59208;DHT22;44977;53.132;6.408;2022-09-03T16:27:03;26.70;45.00
59208;DHT22;44977;53.132;6.408;2022-09-03T16:53:49;25.90;46.50
59208;DHT22;44977;53.132;6.408;2022-09-03T17:10:32;25.40;48.00
59208;DHT22;44977;53.132;6.408;2022-09-03T17:21:17;25.10;48.70
59208;DHT22;44977;53.132;6.408;2022-09-03T17:32:21;24.70;49.40
59208;DHT22;44977;53.132;6.408;2022-09-03T17:37:33;24.60;50.30
59208;DHT22;44977;53.132;6.408;2022-09-03T17:53:49;24.20;51.80
59208;DHT22;44977;53.132;6.408;2022-09-03T18:04:30;23.80;53.00
59208;DHT22;44977;53.132;6.408;2022-09-03T18:09:39;23.70;53.50
59208;DHT22;44977;53.132;6.408;2022-09-03T18:14:49;23.50;53.90
59208;DHT22;44977;53.132;6.408;2022-09-03T18:20:05;23.30;54.50
59208;DHT22;44977;53.132;6.408;2022-09-03T18:25:26;23.20;55.00
59208;DHT22;44977;53.132;6.408;2022-09-03T18:30:47;23.10;55.70
59208;DHT22;44977;53.132;6.408;2022-09-03T18:36:05;22.90;56.40
59208;DHT22;44977;53.132;6.408;2022-09-03T18:53:08;22.60;58.30
59208;DHT22;44977;53.132;6.408;2022-09-03T18:58:45;22.50;58.30
59208;DHT22;44977;53.132;6.408;2022-09-03T19:04:14;22.40;58.30
59208;DHT22;44977;53.132;6.408;2022-09-03T19:15:28;22.10;59.50
59208;DHT22;44977;53.132;6.408;2022-09-03T19:21:27;21.90;59.80
59208;DHT22;44977;53.132;6.408;2022-09-03T19:27:10;21.90;60.10
59208;DHT22;44977;53.132;6.408;2022-09-03T19:33:03;21.70;60.50
59208;DHT22;44977;53.132;6.408;2022-09-03T19:38:23;21.50;61.00
59208;DHT22;44977;53.132;6.408;2022-09-03T19:54:53;21.20;62.30
59208;DHT22;44977;53.132;6.408;2022-09-03T20:00:13;21.10;62.60
59208;DHT22;44977;53.132;6.408;2022-09-03T20:05:34;21.00;63.50
59208;DHT22;44977;53.132;6.408;2022-09-03T20:10:55;20.90;63.80
59208;DHT22;44977;53.132;6.408;2022-09-03T20:16:03;20.80;64.50
59208;DHT22;44977;53.132;6.408;2022-09-03T20:21:47;20.70;64.50
59208;DHT22;44977;53.132;6.408;2022-09-03T20:26:52;20.60;64.80
59208;DHT22;44977;53.132;6.408;2022-09-03T20:48:04;20.20;65.10
59208;DHT22;44977;53.132;6.408;2022-09-03T20:59:09;20.00;64.90
59208;DHT22;44977;53.132;6.408;2022-09-03T21:25:55;19.60;65.40
59208;DHT22;44977;53.132;6.408;2022-09-03T21:31:00;19.60;65.80
59208;DHT22;44977;53.132;6.408;2022-09-03T21:36:12;19.50;66.60
59208;DHT22;44977;53.132;6.408;2022-09-03T21:41:30;19.40;66.40
59208;DHT22;44977;53.132;6.408;2022-09-03T21:52:02;19.20;66.60
59208;DHT22;44977;53.132;6.408;2022-09-03T21:57:23;19.10;66.90
59208;DHT22;44977;53.132;6.408;2022-09-03T22:02:29;19.10;66.90
59208;DHT22;44977;53.132;6.408;2022-09-03T22:13:15;19.00;67.10
59208;DHT22;44977;53.132;6.408;2022-09-03T22:24:00;18.80;68.00
59208;DHT22;44977;53.132;6.408;2022-09-03T22:29:26;18.80;67.70
59208;DHT22;44977;53.132;6.408;2022-09-03T22:39:45;18.60;68.00
59208;DHT22;44977;53.132;6.408;2022-09-03T23:00:14;18.30;68.50
59208;DHT22;44977;53.132;6.408;2022-09-03T23:05:37;18.30;68.60
59208;DHT22;44977;53.132;6.408;2022-09-03T23:10:55;18.20;68.70
59208;DHT22;44977;53.132;6.408;2022-09-03T23:16:35;18.20;68.60
59208;DHT22;44977;53.132;6.408;2022-09-03T23:21:42;18.10;69.10
59208;DHT22;44977;53.132;6.408;2022-09-03T23:26:48;18.00;69.00
59208;DHT22;44977;53.132;6.408;2022-09-03T23:31:55;18.00;69.30
59208;DHT22;44977;53.132;6.408;2022-09-03T23:53:06;17.80;70.30
